createdAt,value
2018-06-29T00:01:35.265Z,20.44
2018-06-29T00:04:05.370Z,20.41
2018-06-29T00:06:35.733Z,20.38
2018-06-29T00:09:07.466Z,20.37
2018-06-29T00:11:37.385Z,20.27
2018-06-29T00:14:07.292Z,20.23
2018-06-29T00:16:37.714Z,20.25
2018-06-29T00:19:07.723Z,20.21
2018-06-29T00:21:37.620Z,20.21
2018-06-29T00:24:07.489Z,20.20
2018-06-29T00:26:37.417Z,20.19
2018-06-29T00:29:07.772Z,20.20
2018-06-29T00:31:38.230Z,20.17
2018-06-29T00:34:08.623Z,20.13
2018-06-29T00:36:38.537Z,20.10
2018-06-29T00:39:09.617Z,20.07
2018-06-29T00:41:39.517Z,20.07
2018-06-29T00:44:09.777Z,20.05
2018-06-29T00:46:40.116Z,20.05
2018-06-29T00:49:09.897Z,20.03
2018-06-29T00:51:39.742Z,20.01
2018-06-29T00:54:10.269Z,19.97
2018-06-29T00:56:41.161Z,19.94
2018-06-29T00:59:11.877Z,19.94
2018-06-29T01:01:43.184Z,19.93
2018-06-29T01:04:13.883Z,19.93
2018-06-29T01:06:45.235Z,19.90
2018-06-29T01:09:15.823Z,19.88
2018-06-29T01:11:47.221Z,19.83
2018-06-29T01:14:17.862Z,19.82
2018-06-29T01:16:49.246Z,19.80
2018-06-29T01:19:19.815Z,19.78
2018-06-29T01:21:51.225Z,19.78
2018-06-29T01:24:21.900Z,19.76
2018-06-29T01:26:53.275Z,19.75
2018-06-29T01:29:23.860Z,19.71
2018-06-29T01:31:55.738Z,19.70
2018-06-29T01:34:26.207Z,19.69
2018-06-29T01:36:56.886Z,19.66
2018-06-29T01:39:28.446Z,19.64
2018-06-29T01:41:58.445Z,19.62
2018-06-29T01:44:28.948Z,19.61
2018-06-29T01:47:00.683Z,19.60
2018-06-29T01:49:31.166Z,19.59
2018-06-29T01:52:01.958Z,19.58
2018-06-29T01:54:33.323Z,19.58
2018-06-29T01:57:03.898Z,19.57
2018-06-29T01:59:35.159Z,19.57
2018-06-29T02:02:06.416Z,19.55
2018-06-29T02:04:36.966Z,19.56
2018-06-29T02:07:08.272Z,19.53
2018-06-29T02:09:38.845Z,19.50
2018-06-29T02:12:12.887Z,19.44
2018-06-29T02:14:42.693Z,19.39
2018-06-29T02:17:12.566Z,19.37
2018-06-29T02:19:43.059Z,19.36
2018-06-29T02:22:13.911Z,19.36
2018-06-29T02:24:45.196Z,19.38
2018-06-29T02:27:15.923Z,19.40
2018-06-29T02:29:47.165Z,19.42
2018-06-29T02:32:17.933Z,19.41
2018-06-29T02:34:48.790Z,19.39
2018-06-29T02:37:20.333Z,19.37
2018-06-29T02:39:50.844Z,19.35
2018-06-29T02:42:22.147Z,19.28
2018-06-29T02:44:52.884Z,19.27
2018-06-29T02:47:24.252Z,19.30
2018-06-29T02:49:54.819Z,19.31
2018-06-29T02:52:26.237Z,19.30
2018-06-29T02:54:56.854Z,19.26
2018-06-29T02:57:28.206Z,19.31
2018-06-29T02:59:58.898Z,19.31
2018-06-29T03:02:30.185Z,19.31
2018-06-29T03:05:00.922Z,19.32
2018-06-29T03:07:32.194Z,19.32
2018-06-29T03:10:02.870Z,19.15
2018-06-29T03:12:34.165Z,19.28
2018-06-29T03:15:04.946Z,19.29
2018-06-29T03:17:35.857Z,19.29
2018-06-29T03:20:07.141Z,19.29
2018-06-29T03:22:38.044Z,19.30
2018-06-29T03:25:08.861Z,19.30
2018-06-29T03:27:40.366Z,19.29
2018-06-29T03:30:10.895Z,19.27
2018-06-29T03:32:41.867Z,19.26
2018-06-29T03:35:13.219Z,19.20
2018-06-29T03:37:43.929Z,19.15
2018-06-29T03:40:15.220Z,19.18
2018-06-29T03:42:45.950Z,19.16
2018-06-29T03:45:17.230Z,19.15
2018-06-29T03:47:47.927Z,19.17
2018-06-29T03:50:19.209Z,19.17
2018-06-29T03:52:49.887Z,19.15
2018-06-29T03:55:21.145Z,19.17
2018-06-29T03:57:52.122Z,19.21
2018-06-29T04:00:22.842Z,19.18
2018-06-29T04:02:54.221Z,19.20
2018-06-29T04:05:24.845Z,19.20
2018-06-29T04:07:56.226Z,19.21
2018-06-29T04:10:26.830Z,19.22
2018-06-29T04:12:57.170Z,19.26
2018-06-29T04:15:27.931Z,19.27
2018-06-29T04:17:58.931Z,19.23
2018-06-29T04:20:30.191Z,19.26
2018-06-29T04:23:01.117Z,19.27
2018-06-29T04:25:31.878Z,19.31
2018-06-29T04:28:03.244Z,19.36
2018-06-29T04:30:33.842Z,19.39
2018-06-29T04:33:05.315Z,19.42
2018-06-29T04:35:35.806Z,19.46
2018-06-29T04:38:07.230Z,19.44
2018-06-29T04:40:37.883Z,19.45
2018-06-29T04:43:09.203Z,19.45
2018-06-29T04:45:39.897Z,19.48
2018-06-29T04:48:11.174Z,19.48
2018-06-29T04:50:41.893Z,19.50
2018-06-29T04:53:13.164Z,19.54
2018-06-29T04:55:43.845Z,19.50
2018-06-29T04:58:15.237Z,19.49
2018-06-29T05:00:45.857Z,19.49
2018-06-29T05:03:17.238Z,19.53
2018-06-29T05:05:47.837Z,19.56
2018-06-29T05:08:19.229Z,19.58
2018-06-29T05:10:49.843Z,19.59
2018-06-29T05:13:20.145Z,19.59
2018-06-29T05:15:51.165Z,19.62
2018-06-29T05:18:21.885Z,19.66
2018-06-29T05:20:53.149Z,19.64
2018-06-29T05:23:23.830Z,19.58
2018-06-29T05:25:55.262Z,19.60
2018-06-29T05:28:25.933Z,19.57
2018-06-29T05:30:56.838Z,19.57
2018-06-29T05:33:28.293Z,19.58
2018-06-29T05:35:58.852Z,19.57
2018-06-29T05:38:29.949Z,19.62
2018-06-29T05:41:01.264Z,19.69
2018-06-29T05:43:31.890Z,19.75
2018-06-29T05:46:03.257Z,19.83
2018-06-29T05:48:33.943Z,19.97
2018-06-29T05:51:05.213Z,20.16
2018-06-29T05:53:35.955Z,20.30
2018-06-29T05:56:06.900Z,20.43
2018-06-29T05:58:37.851Z,20.54
2018-06-29T06:01:12.182Z,20.61
2018-06-29T06:03:42.089Z,20.68
2018-06-29T06:06:11.885Z,20.73
2018-06-29T06:08:42.154Z,20.76
2018-06-29T06:11:11.908Z,20.82
2018-06-29T06:13:43.221Z,20.87
2018-06-29T06:16:14.138Z,20.84
2018-06-29T06:18:44.873Z,20.89
2018-06-29T06:21:16.197Z,20.94
2018-06-29T06:23:46.105Z,20.99
2018-06-29T06:26:16.885Z,21.07
2018-06-29T06:28:48.198Z,21.21
2018-06-29T06:31:18.704Z,21.25
2018-06-29T06:33:49.213Z,21.36
2018-06-29T06:36:19.918Z,21.48
2018-06-29T06:38:51.385Z,21.54
2018-06-29T06:41:21.855Z,21.65
2018-06-29T06:43:53.149Z,21.78
2018-06-29T06:46:23.969Z,21.83
2018-06-29T06:48:55.290Z,21.89
2018-06-29T06:51:25.934Z,21.92
2018-06-29T06:53:57.511Z,22.01
2018-06-29T06:56:28.173Z,22.02
2018-06-29T06:58:58.969Z,22.12
2018-06-29T07:01:30.222Z,22.08
2018-06-29T07:04:01.018Z,22.17
2018-06-29T07:06:31.829Z,22.29
2018-06-29T07:09:03.738Z,22.40
2018-06-29T07:11:34.291Z,22.66
2018-06-29T07:14:05.193Z,22.74
2018-06-29T07:16:36.046Z,22.83
2018-06-29T07:19:07.584Z,22.91
2018-06-29T07:21:38.309Z,22.89
2018-06-29T07:24:08.993Z,22.83
2018-06-29T07:26:39.165Z,22.89
2018-06-29T07:29:10.043Z,22.93
2018-06-29T07:31:40.518Z,23.08
2018-06-29T07:34:11.063Z,23.13
2018-06-29T07:36:41.921Z,23.17
2018-06-29T07:39:12.863Z,23.23
2018-06-29T07:41:44.149Z,23.30
2018-06-29T07:44:14.977Z,23.49
2018-06-29T07:46:45.937Z,23.65
2018-06-29T07:49:16.865Z,23.77
2018-06-29T07:51:48.167Z,23.85
2018-06-29T07:54:18.941Z,23.94
2018-06-29T07:56:49.845Z,24.07
2018-06-29T07:59:21.197Z,24.20
2018-06-29T08:01:52.193Z,24.40
2018-06-29T08:04:22.885Z,24.63
2018-06-29T08:06:54.233Z,24.91
2018-06-29T08:09:25.277Z,24.99
2018-06-29T08:11:55.847Z,25.00
2018-06-29T08:14:27.158Z,25.18
2018-06-29T08:16:57.876Z,25.20
2018-06-29T08:19:27.914Z,25.30
2018-06-29T08:21:58.797Z,25.41
2018-06-29T08:24:32.050Z,25.35
2018-06-29T08:27:01.834Z,25.50
2018-06-29T08:29:32.160Z,25.53
2018-06-29T08:32:03.614Z,25.62
2018-06-29T08:34:35.177Z,25.82
2018-06-29T08:37:05.371Z,25.93
2018-06-29T08:39:36.033Z,26.02
2018-06-29T08:42:06.919Z,26.13
2018-06-29T08:44:37.860Z,26.28
2018-06-29T08:47:09.245Z,26.30
2018-06-29T08:49:40.037Z,26.28
2018-06-29T08:52:10.847Z,26.22
2018-06-29T08:54:42.458Z,26.31
2018-06-29T08:57:12.987Z,26.33
2018-06-29T08:59:43.931Z,26.29
2018-06-29T09:02:14.865Z,26.57
2018-06-29T09:04:46.234Z,26.65
2018-06-29T09:07:16.935Z,26.67
2018-06-29T09:09:47.878Z,26.77
2018-06-29T09:12:19.149Z,26.87
2018-06-29T09:14:49.841Z,26.96
2018-06-29T09:17:21.133Z,27.06
2018-06-29T09:19:51.817Z,27.23
2018-06-29T09:22:23.286Z,27.35
2018-06-29T09:24:54.333Z,27.40
2018-06-29T09:27:24.150Z,27.60
2018-06-29T09:29:55.001Z,27.84
2018-06-29T09:32:25.881Z,27.96
2018-06-29T09:34:56.791Z,27.94
2018-06-29T09:37:28.597Z,28.10
2018-06-29T09:39:59.083Z,28.32
2018-06-29T09:42:29.868Z,28.40
2018-06-29T09:45:00.881Z,28.40
2018-06-29T09:47:32.114Z,28.36
2018-06-29T09:50:03.087Z,28.53
2018-06-29T09:52:33.861Z,28.72
2018-06-29T09:55:05.602Z,28.93
2018-06-29T09:57:36.022Z,29.13
2018-06-29T10:00:09.321Z,29.03
2018-06-29T10:02:39.636Z,28.81
2018-06-29T10:05:09.639Z,28.84
2018-06-29T10:07:40.314Z,28.83
2018-06-29T10:10:11.255Z,29.10
2018-06-29T10:12:41.902Z,29.19
2018-06-29T10:15:12.866Z,29.38
2018-06-29T10:17:44.147Z,29.70
2018-06-29T10:20:14.881Z,29.84
2018-06-29T10:22:45.846Z,29.71
2018-06-29T10:25:17.359Z,29.86
2018-06-29T10:27:48.085Z,29.86
2018-06-29T10:30:18.946Z,29.67
2018-06-29T10:32:49.860Z,29.98
2018-06-29T10:35:19.858Z,30.26
2018-06-29T10:37:51.234Z,30.10
2018-06-29T10:40:22.027Z,29.98
2018-06-29T10:42:52.969Z,29.79
2018-06-29T10:45:23.859Z,29.90
2018-06-29T10:47:55.075Z,29.95
2018-06-29T10:50:26.219Z,29.81
2018-06-29T10:52:57.081Z,29.49
2018-06-29T10:55:27.986Z,29.45
2018-06-29T10:57:58.909Z,29.57
2018-06-29T11:00:29.825Z,29.69
2018-06-29T11:03:01.085Z,29.81
2018-06-29T11:05:31.910Z,29.84
2018-06-29T11:08:01.909Z,30.29
2018-06-29T11:10:32.859Z,30.31
2018-06-29T11:13:04.086Z,30.28
2018-06-29T11:15:34.870Z,29.91
2018-06-29T11:18:06.216Z,29.86
2018-06-29T11:20:36.826Z,30.09
2018-06-29T11:23:08.149Z,30.17
2018-06-29T11:25:38.927Z,30.34
2018-06-29T11:28:09.867Z,30.60
2018-06-29T11:30:41.260Z,30.68
2018-06-29T11:33:12.119Z,30.66
2018-06-29T11:35:42.898Z,30.32
2018-06-29T11:38:14.152Z,29.74
2018-06-29T11:40:44.900Z,29.77
2018-06-29T11:43:16.122Z,29.73
2018-06-29T11:45:47.116Z,29.99
2018-06-29T11:48:17.833Z,29.99
2018-06-29T11:50:49.089Z,29.95
2018-06-29T11:53:19.861Z,30.08
2018-06-29T11:55:50.538Z,30.50
2018-06-29T11:58:21.189Z,30.66
2018-06-29T12:00:51.950Z,30.56
2018-06-29T12:03:22.774Z,30.74
2018-06-29T12:05:54.292Z,31.12
2018-06-29T12:08:24.077Z,30.71
2018-06-29T12:10:54.896Z,30.78
2018-06-29T12:13:25.787Z,30.63
2018-06-29T12:15:57.133Z,30.76
2018-06-29T12:18:27.814Z,31.34
2018-06-29T12:20:58.305Z,31.43
2018-06-29T12:23:28.858Z,31.26
2018-06-29T12:25:59.874Z,31.56
2018-06-29T12:28:31.308Z,31.48
2018-06-29T12:31:01.868Z,31.45
2018-06-29T12:33:33.095Z,31.70
2018-06-29T12:36:03.893Z,31.70
2018-06-29T12:38:34.807Z,31.93
2018-06-29T12:41:06.507Z,31.75
2018-06-29T12:43:37.043Z,31.83
2018-06-29T12:46:07.930Z,32.17
2018-06-29T12:48:38.818Z,32.21
2018-06-29T12:51:09.219Z,32.13
2018-06-29T12:53:39.858Z,31.99
2018-06-29T12:56:10.951Z,31.76
2018-06-29T12:58:42.167Z,31.78
2018-06-29T13:01:12.837Z,31.92
2018-06-29T13:03:44.281Z,31.94
2018-06-29T13:06:14.828Z,32.36
2018-06-29T13:08:46.093Z,32.11
2018-06-29T13:11:16.985Z,32.00
2018-06-29T13:13:47.838Z,31.95
2018-06-29T13:16:19.308Z,32.09
2018-06-29T13:18:49.809Z,31.70
2018-06-29T13:21:20.246Z,31.79
2018-06-29T13:23:50.903Z,32.08
2018-06-29T13:26:21.961Z,32.15
2018-06-29T13:28:53.010Z,32.41
2018-06-29T13:31:23.727Z,32.19
2018-06-29T13:33:54.284Z,32.00
2018-06-29T13:36:25.251Z,32.32
2018-06-29T13:38:55.762Z,32.11
2018-06-29T13:41:27.274Z,32.14
2018-06-29T13:43:57.867Z,32.09
2018-06-29T13:46:28.874Z,32.14
2018-06-29T13:49:00.161Z,32.31
2018-06-29T13:51:30.918Z,32.24
2018-06-29T13:54:01.957Z,32.17
2018-06-29T13:56:31.969Z,32.42
2018-06-29T13:59:02.956Z,32.00
2018-06-29T14:01:33.948Z,32.03
2018-06-29T14:04:04.825Z,31.73
2018-06-29T14:06:36.351Z,31.44
2018-06-29T14:09:08.194Z,31.42
2018-06-29T14:11:38.719Z,31.64
2018-06-29T14:14:08.564Z,31.55
2018-06-29T14:16:39.090Z,31.48
2018-06-29T14:19:09.979Z,31.33
2018-06-29T14:21:41.406Z,31.15
2018-06-29T14:24:11.994Z,31.00
2018-06-29T14:26:42.976Z,31.29
2018-06-29T14:29:13.875Z,31.61
2018-06-29T14:31:44.457Z,31.27
2018-06-29T14:34:15.020Z,31.14
2018-06-29T14:36:46.459Z,31.22
2018-06-29T14:39:16.973Z,30.75
2018-06-29T14:41:47.965Z,30.38
2018-06-29T14:44:19.377Z,30.07
2018-06-29T14:46:50.010Z,30.12
2018-06-29T14:49:20.950Z,30.46
2018-06-29T14:51:51.875Z,30.81
2018-06-29T14:54:22.869Z,31.11
2018-06-29T14:56:54.283Z,30.98
2018-06-29T14:59:25.352Z,30.89
2018-06-29T15:01:55.281Z,30.87
2018-06-29T15:04:26.222Z,31.13
2018-06-29T15:06:56.934Z,31.08
2018-06-29T15:09:27.939Z,31.05
2018-06-29T15:11:58.931Z,31.31
2018-06-29T15:14:29.949Z,31.26
2018-06-29T15:17:01.167Z,31.05
2018-06-29T15:19:31.961Z,31.06
2018-06-29T15:22:03.044Z,30.78
2018-06-29T15:24:33.924Z,30.64
2018-06-29T15:27:05.056Z,30.54
2018-06-29T15:29:35.964Z,30.09
2018-06-29T15:32:07.525Z,30.24
2018-06-29T15:34:38.098Z,30.39
2018-06-29T15:37:09.325Z,30.57
2018-06-29T15:39:39.999Z,30.61
2018-06-29T15:42:10.957Z,30.84
2018-06-29T15:44:41.950Z,30.90
2018-06-29T15:47:13.230Z,30.90
2018-06-29T15:49:43.188Z,30.88
2018-06-29T15:52:13.994Z,30.86
2018-06-29T15:54:43.865Z,30.49
2018-06-29T15:57:15.014Z,30.49
2018-06-29T15:59:45.943Z,30.07
2018-06-29T16:02:16.922Z,29.90
2018-06-29T16:04:46.889Z,30.01
2018-06-29T16:07:18.294Z,29.94
2018-06-29T16:09:48.525Z,29.96
2018-06-29T16:12:19.163Z,30.16
2018-06-29T16:14:49.956Z,30.27
2018-06-29T16:17:21.370Z,30.08
2018-06-29T16:19:51.964Z,30.01
2018-06-29T16:22:22.102Z,30.00
2018-06-29T16:24:52.878Z,29.95
2018-06-29T16:27:24.358Z,30.16
2018-06-29T16:29:54.998Z,30.04
2018-06-29T16:32:25.976Z,29.96
2018-06-29T16:34:56.890Z,30.03
2018-06-29T16:37:28.038Z,30.08
2018-06-29T16:39:58.986Z,30.33
2018-06-29T16:42:30.108Z,30.27
2018-06-29T16:45:00.963Z,30.34
2018-06-29T16:47:31.939Z,30.39
2018-06-29T16:50:02.984Z,30.38
2018-06-29T16:52:33.937Z,30.44
2018-06-29T16:55:05.061Z,30.45
2018-06-29T16:57:36.317Z,29.87
2018-06-29T17:00:08.246Z,29.59
2018-06-29T17:02:38.243Z,29.53
2018-06-29T17:05:09.008Z,29.56
2018-06-29T17:07:40.007Z,29.39
2018-06-29T17:10:11.013Z,29.54
2018-06-29T17:12:41.926Z,29.55
2018-06-29T17:15:12.903Z,29.31
2018-06-29T17:17:44.292Z,29.25
2018-06-29T17:20:14.951Z,29.34
2018-06-29T17:22:47.116Z,29.47
2018-06-29T17:25:17.154Z,29.38
2018-06-29T17:27:48.542Z,29.15
2018-06-29T17:30:18.483Z,29.31
2018-06-29T17:32:48.455Z,29.26
2018-06-29T17:35:19.065Z,29.10
2018-06-29T17:37:50.089Z,28.96
2018-06-29T17:40:20.905Z,28.91
2018-06-29T17:42:51.961Z,28.71
2018-06-29T17:45:22.935Z,28.70
2018-06-29T17:47:54.137Z,28.68
2018-06-29T17:50:25.313Z,28.77
2018-06-29T17:52:56.021Z,28.65
2018-06-29T17:55:27.127Z,28.72
2018-06-29T17:57:57.929Z,28.51
2018-06-29T18:00:28.953Z,28.41
2018-06-29T18:03:04.649Z,28.38
2018-06-29T18:05:34.543Z,28.19
2018-06-29T18:08:05.022Z,28.16
2018-06-29T18:10:34.813Z,28.12
2018-06-29T18:13:05.012Z,27.99
2018-06-29T18:15:35.500Z,28.10
2018-06-29T18:18:06.576Z,28.11
2018-06-29T18:20:39.068Z,28.12
2018-06-29T18:23:09.676Z,28.12
2018-06-29T18:25:40.210Z,28.07
2018-06-29T18:28:10.130Z,28.06
2018-06-29T18:30:40.074Z,28.04
2018-06-29T18:33:15.046Z,28.02
2018-06-29T18:35:45.181Z,27.95
2018-06-29T18:38:15.152Z,27.90
2018-06-29T18:40:45.718Z,27.87
2018-06-29T18:43:15.810Z,27.81
2018-06-29T18:45:45.685Z,27.77
2018-06-29T18:48:15.585Z,27.70
2018-06-29T18:50:46.270Z,27.64
2018-06-29T18:53:16.981Z,27.58
2018-06-29T18:55:47.845Z,27.51
2018-06-29T18:58:19.293Z,27.45
2018-06-29T19:00:49.933Z,27.37
2018-06-29T19:03:21.757Z,27.32
2018-06-29T19:05:53.629Z,26.83
2018-06-29T19:08:23.611Z,26.44
2018-06-29T19:10:55.454Z,26.37
2018-06-29T19:13:25.665Z,26.40
2018-06-29T19:15:56.274Z,26.43
2018-06-29T19:18:26.923Z,26.04
2018-06-29T19:20:57.938Z,25.68
2018-06-29T19:23:29.461Z,25.63
2018-06-29T19:25:59.947Z,25.58
2018-06-29T19:28:30.945Z,25.37
2018-06-29T19:31:01.873Z,25.22
2018-06-29T19:33:33.257Z,24.93
2018-06-29T19:36:03.782Z,24.94
2018-06-29T19:38:35.338Z,24.71
2018-06-29T19:41:06.129Z,24.53
2018-06-29T19:43:37.201Z,24.53
2018-06-29T19:46:08.016Z,24.57
2018-06-29T19:48:39.616Z,24.41
2018-06-29T19:51:10.966Z,24.48
2018-06-29T19:53:41.062Z,24.38
2018-06-29T19:56:11.953Z,24.36
2018-06-29T19:58:43.073Z,24.22
2018-06-29T20:01:13.993Z,24.06
2018-06-29T20:03:45.057Z,24.01
2018-06-29T20:06:15.910Z,23.57
2018-06-29T20:08:46.969Z,23.42
2018-06-29T20:11:18.348Z,23.31
2018-06-29T20:13:49.087Z,23.31
2018-06-29T20:16:19.971Z,23.46
2018-06-29T20:18:50.917Z,23.35
2018-06-29T20:21:22.267Z,23.38
2018-06-29T20:23:52.249Z,23.54
2018-06-29T20:26:22.958Z,23.45
2018-06-29T20:28:54.019Z,23.30
2018-06-29T20:31:24.846Z,23.39
2018-06-29T20:33:55.186Z,23.46
2018-06-29T20:36:26.058Z,23.25
2018-06-29T20:38:57.134Z,23.23
2018-06-29T20:41:27.982Z,23.08
2018-06-29T20:43:58.967Z,23.10
2018-06-29T20:46:29.916Z,22.82
2018-06-29T20:49:01.315Z,22.77
2018-06-29T20:51:31.965Z,22.60
2018-06-29T20:54:03.093Z,22.58
2018-06-29T20:56:33.874Z,22.51
2018-06-29T20:59:06.150Z,22.50
2018-06-29T21:01:36.055Z,22.01
2018-06-29T21:04:07.023Z,22.01
2018-06-29T21:06:37.908Z,22.01
2018-06-29T21:09:11.095Z,21.93
2018-06-29T21:11:41.637Z,21.85
2018-06-29T21:14:11.653Z,21.64
2018-06-29T21:16:43.507Z,21.74
2018-06-29T21:19:13.837Z,21.66
2018-06-29T21:21:43.650Z,21.02
2018-06-29T21:24:14.193Z,20.97
2018-06-29T21:26:44.835Z,20.99
2018-06-29T21:29:16.250Z,20.84
2018-06-29T21:31:46.721Z,20.61
2018-06-29T21:34:17.424Z,20.68
2018-06-29T21:36:48.030Z,20.27
2018-06-29T21:39:18.881Z,20.35
2018-06-29T21:41:53.233Z,20.54
2018-06-29T21:44:23.110Z,20.69
2018-06-29T21:46:52.961Z,20.60
2018-06-29T21:49:22.789Z,20.20
2018-06-29T21:51:54.249Z,20.09
2018-06-29T21:54:25.028Z,20.25
2018-06-29T21:56:55.897Z,20.01
2018-06-29T21:59:27.220Z,19.71
2018-06-29T22:01:58.018Z,19.68
2018-06-29T22:04:28.909Z,19.68
2018-06-29T22:07:00.313Z,19.72
2018-06-29T22:09:30.949Z,19.39
2018-06-29T22:12:01.950Z,19.26
2018-06-29T22:14:32.589Z,19.46
2018-06-29T22:17:03.219Z,19.16
2018-06-29T22:19:33.124Z,19.36
2018-06-29T22:22:03.898Z,19.40
2018-06-29T22:24:34.960Z,19.34
2018-06-29T22:27:06.487Z,19.22
2018-06-29T22:29:36.942Z,19.01
2018-06-29T22:32:08.545Z,18.84
2018-06-29T22:34:39.129Z,18.98
2018-06-29T22:37:10.266Z,19.12
2018-06-29T22:39:40.962Z,19.22
2018-06-29T22:42:12.262Z,19.21
2018-06-29T22:44:42.885Z,18.75
2018-06-29T22:47:14.205Z,18.64
2018-06-29T22:49:45.273Z,18.69
2018-06-29T22:52:15.909Z,18.34
2018-06-29T22:54:47.185Z,18.54
2018-06-29T22:57:17.961Z,18.49
2018-06-29T22:59:48.910Z,18.36
2018-06-29T23:02:20.295Z,18.32
2018-06-29T23:04:50.892Z,18.27
2018-06-29T23:07:22.261Z,18.04
2018-06-29T23:09:52.862Z,17.87
2018-06-29T23:12:24.272Z,18.07
2018-06-29T23:14:55.859Z,17.96
2018-06-29T23:17:26.232Z,18.10
2018-06-29T23:19:56.949Z,18.13
2018-06-29T23:22:27.931Z,18.11
2018-06-29T23:24:58.935Z,18.13
2018-06-29T23:27:29.927Z,17.89
2018-06-29T23:30:00.904Z,18.21
2018-06-29T23:32:31.878Z,18.25
2018-06-29T23:35:03.210Z,18.18
2018-06-29T23:37:33.973Z,18.18
2018-06-29T23:40:05.361Z,18.00
2018-06-29T23:42:36.084Z,17.99
2018-06-29T23:45:06.998Z,17.88
2018-06-29T23:47:37.945Z,17.98
2018-06-29T23:50:09.421Z,18.07
2018-06-29T23:52:39.922Z,17.98
2018-06-29T23:55:11.189Z,17.96
2018-06-29T23:57:41.114Z,17.86
